KOLE

Cattaraugus County-Olean Airport

Olean, New York, USA
METAR KOLE 162255Z AUTO 08005KT 3/4SM BR OVC002 00/00 A2990 RMK AO2
Observed Flight Rules
Dec-16 @ 22:55 UTC (9 minutes ago) Instrument Flight Rules
Wind Visibility Clouds Conditions
80° at 5 knots 3/4 miles
  • Overcast at 200' AGL
  • Mist
Temperatures Readings
Current 0°C / 32°F
Dewpoint 0°C / 32°F
Humidity 100%
Altimeter 29.9" Hg
Pressure 1013 hPa
Elevation 651
METAR KOLE 162255Z AUTO 08005KT 3/4SM BR OVC002 00/00 A2990 RMK AO2
Observed Flight Rules
Dec-16 @ 22:55 UTC
(9 minutes ago)
LIFR
Wind Visibility
80° at 5 knots 3/4 miles
Clouds
  • Overcast at 200' AGL
Conditions
  • Mist
Temperature Dewpoint
0°C / 32°F 0°C / 32°F
Humidity Altimeter Pressure
100% 29.9" Hg 1013 hPa